createdAt,value
2023-04-18T00:00:52.240Z,102288.88
2023-04-18T00:03:20.709Z,102289.22
2023-04-18T00:05:48.457Z,102289.97
2023-04-18T00:08:15.855Z,102283.81
2023-04-18T00:10:42.856Z,102277.56
2023-04-18T00:13:10.157Z,102278.75
2023-04-18T00:15:37.430Z,102291.25
2023-04-18T00:18:06.087Z,102285.81
2023-04-18T00:20:33.311Z,102281.41
2023-04-18T00:23:01.748Z,102289.22
2023-04-18T00:25:28.936Z,102281.13
2023-04-18T00:27:55.905Z,102290.13
2023-04-18T00:30:24.860Z,102300.97
2023-04-18T00:32:51.977Z,102289.56
2023-04-18T00:35:20.165Z,102291.56
2023-04-18T00:37:47.174Z,102298.00
2023-04-18T00:40:16.986Z,102301.50
2023-04-18T00:42:43.959Z,102298.84
2023-04-18T00:45:11.236Z,102296.19
2023-04-18T00:47:38.295Z,102295.34
2023-04-18T00:50:06.539Z,102300.31
2023-04-18T00:52:35.772Z,102295.00
2023-04-18T00:55:08.458Z,102301.16
2023-04-18T00:57:36.156Z,102293.34
2023-04-18T01:00:10.474Z,102291.97
2023-04-18T01:02:39.678Z,102280.38
2023-04-18T01:05:08.958Z,102296.28
2023-04-18T01:07:41.742Z,102298.13
2023-04-18T01:10:11.208Z,102287.00
2023-04-18T01:12:38.193Z,102289.66
2023-04-18T01:15:07.743Z,102289.47
2023-04-18T01:17:36.883Z,102285.16
2023-04-18T01:20:06.295Z,102290.50
2023-04-18T01:22:34.304Z,102283.03
2023-04-18T01:25:07.116Z,102287.72
2023-04-18T01:27:34.356Z,102296.91
2023-04-18T01:30:01.246Z,102299.75
2023-04-18T01:32:30.154Z,102292.66
2023-04-18T01:34:57.224Z,102296.97
2023-04-18T01:37:24.613Z,102298.16
2023-04-18T01:39:51.734Z,102283.72
2023-04-18T01:42:19.217Z,102304.69
2023-04-18T01:44:46.197Z,102286.75
2023-04-18T01:47:13.441Z,102295.94
2023-04-18T01:49:42.736Z,102283.94
2023-04-18T01:52:09.946Z,102280.81
2023-04-18T01:54:37.158Z,102276.91
2023-04-18T01:57:04.098Z,102286.50
2023-04-18T01:59:31.288Z,102287.31
2023-04-18T02:01:59.444Z,102272.00
2023-04-18T02:04:26.549Z,102275.84
2023-04-18T02:06:54.045Z,102274.13
2023-04-18T02:09:21.008Z,102269.81
2023-04-18T02:11:48.188Z,102285.56
2023-04-18T02:14:15.405Z,102278.03
2023-04-18T02:16:42.802Z,102283.47
2023-04-18T02:19:09.823Z,102273.09
2023-04-18T02:21:36.901Z,102284.69
2023-04-18T02:24:03.938Z,102271.00
2023-04-18T02:26:30.853Z,102286.28
2023-04-18T02:28:58.849Z,102286.72
2023-04-18T02:31:25.879Z,102281.69
2023-04-18T02:33:52.884Z,102280.50
2023-04-18T02:36:22.049Z,102291.91
2023-04-18T02:38:49.078Z,102275.25
2023-04-18T02:41:19.607Z,102284.81
2023-04-18T02:43:47.269Z,102280.97
2023-04-18T02:46:16.143Z,102277.75
2023-04-18T02:48:45.739Z,102281.78
2023-04-18T02:51:13.901Z,102291.34
2023-04-18T02:53:40.954Z,102289.78
2023-04-18T02:56:08.346Z,102284.91
2023-04-18T02:59:04.143Z,102282.63
2023-04-18T03:02:00.505Z,102286.03
2023-04-18T03:04:27.537Z,102286.69
2023-04-18T03:06:59.464Z,102276.00
2023-04-18T03:09:28.008Z,102291.28
2023-04-18T03:11:59.956Z,102293.56
2023-04-18T03:14:29.632Z,102291.56
2023-04-18T03:16:56.711Z,102287.69
2023-04-18T03:19:28.908Z,102293.47
2023-04-18T03:21:58.939Z,102291.44
2023-04-18T03:24:27.374Z,102297.78
2023-04-18T03:26:59.676Z,102288.59
2023-04-18T03:29:27.095Z,102292.34
2023-04-18T03:31:54.068Z,102295.66
2023-04-18T03:34:21.229Z,102289.31
2023-04-18T03:36:49.046Z,102293.25
2023-04-18T03:39:17.163Z,102303.75
2023-04-18T03:41:44.674Z,102289.94
2023-04-18T03:44:12.192Z,102289.75
2023-04-18T03:46:41.185Z,102293.25
2023-04-18T03:49:09.808Z,102286.28
2023-04-18T03:51:49.289Z,102296.38
2023-04-18T03:54:17.131Z,102298.41
2023-04-18T03:56:45.461Z,102306.59
2023-04-18T03:59:13.954Z,102300.44
2023-04-18T04:01:44.399Z,102289.31
2023-04-18T04:04:14.265Z,102301.00
2023-04-18T04:06:41.924Z,102294.75
2023-04-18T04:09:09.101Z,102303.50
2023-04-18T04:11:36.386Z,102303.59
2023-04-18T04:14:04.087Z,102302.50
2023-04-18T04:16:37.978Z,102309.22
2023-04-18T04:19:06.196Z,102309.09
2023-04-18T04:21:39.392Z,102308.63
2023-04-18T04:24:09.555Z,102315.53
2023-04-18T04:26:42.768Z,102322.78
2023-04-18T04:29:17.491Z,102316.06
2023-04-18T04:31:46.539Z,102320.47
2023-04-18T04:34:18.354Z,102320.38
2023-04-18T04:36:46.858Z,102315.41
2023-04-18T04:39:15.251Z,102327.06
2023-04-18T04:42:04.456Z,102323.09
2023-04-18T04:44:41.668Z,102323.47
2023-04-18T04:47:09.316Z,102320.69
2023-04-18T04:49:38.428Z,102325.66
2023-04-18T04:52:05.790Z,102333.84
2023-04-18T04:54:32.771Z,102317.09
2023-04-18T04:57:00.048Z,102332.53
2023-04-18T04:59:27.082Z,102335.19
2023-04-18T05:01:54.696Z,102341.91
2023-04-18T05:04:21.947Z,102335.56
2023-04-18T05:06:49.090Z,102327.75
2023-04-18T05:09:16.273Z,102332.72
2023-04-18T05:11:43.323Z,102342.19
2023-04-18T05:14:10.540Z,102339.16
2023-04-18T05:16:37.792Z,102329.16
2023-04-18T05:19:05.680Z,102334.94
2023-04-18T05:21:32.804Z,102340.22
2023-04-18T05:24:01.330Z,102354.19
2023-04-18T05:26:28.278Z,102343.81
2023-04-18T05:28:55.159Z,102348.13
2023-04-18T05:31:22.912Z,102339.59
2023-04-18T05:33:50.073Z,102330.47
2023-04-18T05:36:17.197Z,102353.03
2023-04-18T05:38:44.396Z,102351.00
2023-04-18T05:41:11.305Z,102338.50
2023-04-18T05:43:38.446Z,102337.50
2023-04-18T05:46:05.801Z,102341.53
2023-04-18T05:48:32.994Z,102351.94
2023-04-18T05:51:00.376Z,102335.06
2023-04-18T05:53:27.716Z,102338.56
2023-04-18T05:55:55.163Z,102347.38
2023-04-18T05:58:22.201Z,102336.03
2023-04-18T06:00:49.437Z,102341.53
2023-04-18T06:03:16.669Z,102338.88
2023-04-18T06:05:44.389Z,102343.63
2023-04-18T06:08:11.699Z,102342.56
2023-04-18T06:10:39.225Z,102344.59
2023-04-18T06:13:06.418Z,102350.69
2023-04-18T06:15:34.585Z,102349.59
2023-04-18T06:18:01.655Z,102338.03
2023-04-18T06:20:28.918Z,102350.28
2023-04-18T06:22:55.916Z,102344.59
2023-04-18T06:25:22.940Z,102353.31
2023-04-18T06:27:50.021Z,102353.84
2023-04-18T06:30:17.233Z,102353.28
2023-04-18T06:32:44.226Z,102345.72
2023-04-18T06:35:11.547Z,102355.72
2023-04-18T06:37:38.690Z,102347.91
2023-04-18T06:40:06.508Z,102356.19
2023-04-18T06:42:33.435Z,102349.41
2023-04-18T06:45:00.465Z,102355.41
2023-04-18T06:47:27.567Z,102361.41
2023-04-18T06:49:54.634Z,102361.63
2023-04-18T06:52:21.780Z,102361.25
2023-04-18T06:54:48.726Z,102360.44
2023-04-18T06:57:16.301Z,102359.84
2023-04-18T06:59:43.590Z,102361.50
2023-04-18T07:02:11.306Z,102363.63
2023-04-18T07:04:38.330Z,102359.13
2023-04-18T07:07:05.638Z,102355.41
2023-04-18T07:09:32.677Z,102362.81
2023-04-18T07:11:59.684Z,102348.56
2023-04-18T07:14:27.328Z,102354.34
2023-04-18T07:16:57.740Z,102347.72
2023-04-18T07:19:24.751Z,102350.59
2023-04-18T07:21:51.963Z,102355.72
2023-04-18T07:24:19.087Z,102354.25
2023-04-18T07:26:46.120Z,102364.31
2023-04-18T07:29:13.487Z,102361.63
2023-04-18T07:31:40.605Z,102352.69
2023-04-18T07:34:09.062Z,102357.78
2023-04-18T07:36:37.026Z,102362.13
2023-04-18T07:39:04.286Z,102360.88
2023-04-18T07:41:31.385Z,102358.94
2023-04-18T07:43:58.309Z,102361.59
2023-04-18T07:46:25.390Z,102359.28
2023-04-18T07:48:52.630Z,102361.50
2023-04-18T07:51:19.685Z,102355.03
2023-04-18T07:53:46.828Z,102360.19
2023-04-18T07:56:14.543Z,102353.16
2023-04-18T07:58:41.654Z,102357.72
2023-04-18T08:01:13.660Z,102353.00
2023-04-18T08:03:41.778Z,102358.31
2023-04-18T08:06:09.729Z,102359.38
2023-04-18T08:08:36.688Z,102362.88
2023-04-18T08:11:03.592Z,102357.72
2023-04-18T08:13:31.258Z,102355.84
2023-04-18T08:15:59.735Z,102364.75
2023-04-18T08:18:27.097Z,102367.44
2023-04-18T08:20:54.493Z,102363.66
2023-04-18T08:23:21.943Z,102368.88
2023-04-18T08:25:49.337Z,102364.53
2023-04-18T08:28:16.679Z,102363.09
2023-04-18T08:30:44.348Z,102365.84
2023-04-18T08:33:11.599Z,102372.00
2023-04-18T08:35:38.610Z,102382.81
2023-04-18T08:38:05.976Z,102375.34
2023-04-18T08:40:33.265Z,102375.72
2023-04-18T08:43:05.126Z,102373.00
2023-04-18T08:45:33.153Z,102366.56
2023-04-18T08:48:01.603Z,102369.22
2023-04-18T08:50:28.914Z,102364.88
2023-04-18T08:52:56.545Z,102366.25
2023-04-18T08:55:23.619Z,102363.66
2023-04-18T08:57:54.165Z,102368.78
2023-04-18T09:00:22.677Z,102367.16
2023-04-18T09:02:55.025Z,102370.72
2023-04-18T09:05:25.375Z,102366.59
2023-04-18T09:07:54.475Z,102363.25
2023-04-18T09:10:33.480Z,102362.34
2023-04-18T09:13:03.404Z,102352.00
2023-04-18T09:15:31.180Z,102354.88
2023-04-18T09:18:02.896Z,102358.38
2023-04-18T09:20:42.290Z,102346.31
2023-04-18T09:23:23.344Z,102352.91
2023-04-18T09:25:52.150Z,102345.22
2023-04-18T09:28:27.814Z,102349.53
2023-04-18T09:31:09.607Z,102357.09
2023-04-18T09:33:37.123Z,102356.09
2023-04-18T09:36:24.618Z,102336.41
2023-04-18T09:38:56.214Z,102353.94
2023-04-18T09:41:24.838Z,102347.78
2023-04-18T09:44:15.026Z,102348.66
2023-04-18T09:46:46.627Z,102344.97
2023-04-18T09:49:14.733Z,102349.16
2023-04-18T09:51:44.453Z,102346.13
2023-04-18T09:54:18.120Z,102341.94
2023-04-18T09:56:47.025Z,102347.28
2023-04-18T09:59:24.758Z,102348.09
2023-04-18T10:01:52.149Z,102332.63
2023-04-18T10:04:19.924Z,102340.25
2023-04-18T10:06:47.466Z,102334.81
2023-04-18T10:09:16.086Z,102335.19
2023-04-18T10:11:44.388Z,102331.13
2023-04-18T10:14:13.979Z,102325.84
2023-04-18T10:16:45.436Z,102329.06
2023-04-18T10:19:27.574Z,102323.81
2023-04-18T10:22:01.098Z,102329.06
2023-04-18T10:24:53.821Z,102326.16
2023-04-18T10:27:56.313Z,102336.88
2023-04-18T10:30:46.265Z,102331.25
2023-04-18T10:33:36.010Z,102335.03
2023-04-18T10:36:09.421Z,102331.50
2023-04-18T10:38:45.476Z,102324.75
2023-04-18T10:41:26.221Z,102337.84
2023-04-18T10:44:18.208Z,102335.09
2023-04-18T10:46:48.955Z,102332.09
2023-04-18T10:49:33.683Z,102326.09
2023-04-18T10:52:02.608Z,102316.75
2023-04-18T10:54:47.057Z,102324.88
2023-04-18T10:57:15.262Z,102318.59
2023-04-18T10:59:45.340Z,102316.47
2023-04-18T11:02:28.858Z,102330.28
2023-04-18T11:05:01.832Z,102329.44
2023-04-18T11:07:39.449Z,102328.31
2023-04-18T11:10:09.060Z,102330.47
2023-04-18T11:12:39.072Z,102331.31
2023-04-18T11:15:22.249Z,102328.91
2023-04-18T11:18:03.491Z,102332.72
2023-04-18T11:20:47.440Z,102320.47
2023-04-18T11:23:21.460Z,102324.03
2023-04-18T11:25:54.471Z,102324.50
2023-04-18T11:28:24.705Z,102327.50
2023-04-18T11:30:52.230Z,102316.91
2023-04-18T11:33:19.310Z,102309.06
2023-04-18T11:35:47.298Z,102322.16
2023-04-18T11:38:15.935Z,102317.59
2023-04-18T11:40:50.336Z,102312.72
2023-04-18T11:43:25.816Z,102299.72
2023-04-18T11:45:58.832Z,102302.72
2023-04-18T11:48:43.375Z,102298.34
2023-04-18T11:51:39.691Z,102311.19
2023-04-18T11:54:38.815Z,102306.88
2023-04-18T11:57:07.084Z,102297.00
2023-04-18T11:59:34.239Z,102305.97
2023-04-18T12:02:15.353Z,102302.47
2023-04-18T12:04:58.307Z,102315.00
2023-04-18T12:07:45.818Z,102310.31
2023-04-18T12:10:22.236Z,102312.41
2023-04-18T12:12:58.688Z,102313.13
2023-04-18T12:15:28.612Z,102310.38
2023-04-18T12:18:05.861Z,102310.91
2023-04-18T12:20:34.822Z,102304.09
2023-04-18T12:23:03.484Z,102303.88
2023-04-18T12:25:31.750Z,102314.94
2023-04-18T12:28:13.565Z,102296.75
2023-04-18T12:30:41.837Z,102303.81
2023-04-18T12:33:11.755Z,102299.97
2023-04-18T12:35:38.760Z,102295.06
2023-04-18T12:38:06.003Z,102303.69
2023-04-18T12:40:33.174Z,102306.13
2023-04-18T12:43:02.201Z,102301.56
2023-04-18T12:45:30.747Z,102301.88
2023-04-18T12:47:57.783Z,102297.22
2023-04-18T12:50:26.844Z,102294.66
2023-04-18T12:52:57.397Z,102289.75
2023-04-18T12:55:24.785Z,102295.13
2023-04-18T12:57:56.638Z,102295.13
2023-04-18T13:00:29.984Z,102293.22
2023-04-18T13:02:57.548Z,102282.53
2023-04-18T13:05:29.905Z,102290.94
2023-04-18T13:08:15.360Z,102288.19
2023-04-18T13:10:43.825Z,102284.09
2023-04-18T13:13:10.941Z,102277.28
2023-04-18T13:15:38.105Z,102281.41
2023-04-18T13:18:08.479Z,102279.25
2023-04-18T13:20:36.441Z,102267.50
2023-04-18T13:23:03.926Z,102274.31
2023-04-18T13:25:31.434Z,102270.78
2023-04-18T13:27:58.592Z,102264.56
2023-04-18T13:30:25.901Z,102273.31
2023-04-18T13:32:53.155Z,102263.50
2023-04-18T13:35:20.580Z,102275.16
2023-04-18T13:37:47.536Z,102278.63
2023-04-18T13:40:14.935Z,102274.09
2023-04-18T13:42:43.162Z,102275.69
2023-04-18T13:45:10.940Z,102271.31
2023-04-18T13:47:38.087Z,102270.50
2023-04-18T13:50:05.819Z,102262.88
2023-04-18T13:52:32.984Z,102258.25
2023-04-18T13:55:00.211Z,102259.03
2023-04-18T13:57:28.576Z,102247.03
2023-04-18T13:59:55.514Z,102262.50
2023-04-18T14:02:22.785Z,102259.81
2023-04-18T14:04:50.113Z,102252.16
2023-04-18T14:07:17.693Z,102252.34
2023-04-18T14:09:44.835Z,102259.91
2023-04-18T14:12:11.837Z,102247.94
2023-04-18T14:14:38.743Z,102246.75
2023-04-18T14:17:06.435Z,102251.63
2023-04-18T14:19:34.983Z,102242.53
2023-04-18T14:22:02.195Z,102255.03
2023-04-18T14:24:29.624Z,102244.56
2023-04-18T14:26:56.731Z,102248.91
2023-04-18T14:29:24.079Z,102254.81
2023-04-18T14:31:51.012Z,102239.63
2023-04-18T14:34:18.064Z,102240.06
2023-04-18T14:36:45.382Z,102238.31
2023-04-18T14:39:13.130Z,102246.13
2023-04-18T14:41:40.339Z,102243.34
2023-04-18T14:44:07.590Z,102243.28
2023-04-18T14:46:34.893Z,102239.09
2023-04-18T14:49:01.968Z,102239.00
2023-04-18T14:51:28.888Z,102235.16
2023-04-18T14:53:55.880Z,102236.22
2023-04-18T14:56:24.477Z,102228.03
2023-04-18T14:58:51.510Z,102224.94
2023-04-18T15:01:18.605Z,102230.91
2023-04-18T15:03:45.928Z,102229.03
2023-04-18T15:06:13.238Z,102230.84
2023-04-18T15:08:40.601Z,102218.88
2023-04-18T15:11:08.395Z,102227.56
2023-04-18T15:13:36.076Z,102222.16
2023-04-18T15:16:03.633Z,102215.34
2023-04-18T15:18:30.701Z,102219.44
2023-04-18T15:20:59.697Z,102225.34
2023-04-18T15:23:27.501Z,102229.63
2023-04-18T15:25:54.537Z,102220.13
2023-04-18T15:28:21.811Z,102222.13
2023-04-18T15:30:48.790Z,102230.63
2023-04-18T15:33:17.620Z,102221.31
2023-04-18T15:35:45.497Z,102220.41
2023-04-18T15:38:12.760Z,102227.16
2023-04-18T15:40:39.941Z,102235.28
2023-04-18T15:43:07.069Z,102226.91
2023-04-18T15:45:34.001Z,102227.16
2023-04-18T15:48:01.256Z,102231.75
2023-04-18T15:50:29.876Z,102233.88
2023-04-18T15:52:58.068Z,102228.13
2023-04-18T15:55:25.465Z,102225.34
2023-04-18T15:57:52.670Z,102227.72
2023-04-18T16:00:20.950Z,102228.56
2023-04-18T16:02:48.281Z,102227.97
2023-04-18T16:05:16.326Z,102228.81
2023-04-18T16:07:43.860Z,102231.75
2023-04-18T16:10:13.688Z,102236.34
2023-04-18T16:12:40.973Z,102228.97
2023-04-18T16:15:10.618Z,102223.81
2023-04-18T16:17:38.299Z,102229.38
2023-04-18T16:20:08.384Z,102231.72
2023-04-18T16:22:35.745Z,102229.25
2023-04-18T16:25:03.954Z,102225.66
2023-04-18T16:27:31.087Z,102232.03
2023-04-18T16:29:58.279Z,102233.84
2023-04-18T16:32:25.400Z,102230.22
2023-04-18T16:34:52.504Z,102226.03
2023-04-18T16:37:20.005Z,102229.47
2023-04-18T16:39:47.214Z,102232.66
2023-04-18T16:42:15.628Z,102226.78
2023-04-18T16:44:45.102Z,102237.03
2023-04-18T16:47:12.639Z,102232.56
2023-04-18T16:49:39.860Z,102236.25
2023-04-18T16:52:07.018Z,102235.91
2023-04-18T16:54:34.023Z,102232.19
2023-04-18T16:57:01.639Z,102231.84
2023-04-18T16:59:28.700Z,102233.16
2023-04-18T17:01:55.740Z,102232.44
2023-04-18T17:04:32.090Z,102237.16
2023-04-18T17:06:59.182Z,102238.09
2023-04-18T17:09:26.591Z,102246.22
2023-04-18T17:11:53.728Z,102245.63
2023-04-18T17:14:20.927Z,102242.00
2023-04-18T17:16:49.543Z,102253.28
2023-04-18T17:19:17.720Z,102244.81
2023-04-18T17:21:44.930Z,102245.44
2023-04-18T17:24:12.194Z,102247.78
2023-04-18T17:26:39.536Z,102258.72
2023-04-18T17:29:06.514Z,102251.50
2023-04-18T17:31:34.129Z,102252.09
2023-04-18T17:34:01.316Z,102254.22
2023-04-18T17:36:28.509Z,102260.56
2023-04-18T17:38:56.134Z,102265.00
2023-04-18T17:41:23.378Z,102257.69
2023-04-18T17:43:53.739Z,102262.16
2023-04-18T17:46:20.991Z,102266.59
2023-04-18T17:48:48.220Z,102261.19
2023-04-18T17:51:19.340Z,102270.66
2023-04-18T17:53:46.884Z,102273.00
2023-04-18T17:56:14.088Z,102270.88
2023-04-18T17:58:41.467Z,102269.19
2023-04-18T18:01:19.955Z,102277.16
2023-04-18T18:03:48.255Z,102282.59
2023-04-18T18:06:15.713Z,102280.00
2023-04-18T18:08:43.344Z,102281.72
2023-04-18T18:11:10.735Z,102289.03
2023-04-18T18:13:40.802Z,102288.31
2023-04-18T18:16:09.139Z,102296.69
2023-04-18T18:18:36.889Z,102282.94
2023-04-18T18:21:04.113Z,102293.72
2023-04-18T18:23:31.502Z,102295.44
2023-04-18T18:25:58.546Z,102297.53
2023-04-18T18:28:25.639Z,102307.34
2023-04-18T18:30:53.639Z,102305.53
2023-04-18T18:33:21.416Z,102306.66
2023-04-18T18:35:49.391Z,102302.16
2023-04-18T18:38:16.668Z,102307.63
2023-04-18T18:40:44.827Z,102323.16
2023-04-18T18:43:13.461Z,102326.91
2023-04-18T18:45:40.533Z,102324.50
2023-04-18T18:48:07.701Z,102320.38
2023-04-18T18:50:34.774Z,102325.16
2023-04-18T18:53:01.930Z,102318.56
2023-04-18T18:55:30.052Z,102329.16
2023-04-18T18:57:57.134Z,102318.09
2023-04-18T19:00:24.837Z,102330.72
2023-04-18T19:02:52.148Z,102331.38
2023-04-18T19:05:19.510Z,102337.84
2023-04-18T19:07:51.401Z,102339.09
2023-04-18T19:10:18.787Z,102337.72
2023-04-18T19:12:45.895Z,102342.53
2023-04-18T19:15:13.414Z,102344.06
2023-04-18T19:17:40.466Z,102341.63
2023-04-18T19:20:09.116Z,102343.72
2023-04-18T19:22:36.227Z,102342.75
2023-04-18T19:25:03.810Z,102343.81
2023-04-18T19:27:31.053Z,102350.69
2023-04-18T19:29:58.191Z,102341.63
2023-04-18T19:32:25.457Z,102350.31
2023-04-18T19:34:52.674Z,102340.22
2023-04-18T19:37:19.727Z,102341.06
2023-04-18T19:39:46.886Z,102349.97
2023-04-18T19:42:13.872Z,102351.66
2023-04-18T19:44:41.342Z,102350.63
2023-04-18T19:47:08.647Z,102354.97
2023-04-18T19:49:35.891Z,102349.19
2023-04-18T19:52:02.923Z,102351.28
2023-04-18T19:54:33.388Z,102360.78
2023-04-18T19:57:01.409Z,102353.34
2023-04-18T19:59:28.864Z,102342.16
2023-04-18T20:01:57.798Z,102344.63
2023-04-18T20:04:26.922Z,102353.25
2023-04-18T20:06:55.414Z,102347.47
2023-04-18T20:09:22.449Z,102358.59
2023-04-18T20:11:49.411Z,102351.34
2023-04-18T20:14:16.611Z,102345.56
2023-04-18T20:16:45.839Z,102358.75
2023-04-18T20:19:13.882Z,102358.31
2023-04-18T20:21:41.746Z,102344.69
2023-04-18T20:24:09.636Z,102345.47
2023-04-18T20:26:37.139Z,102345.22
2023-04-18T20:29:04.350Z,102356.56
2023-04-18T20:31:31.720Z,102354.69
2023-04-18T20:33:58.875Z,102357.13
2023-04-18T20:36:25.932Z,102353.56
2023-04-18T20:38:52.920Z,102353.16
2023-04-18T20:41:24.269Z,102350.63
2023-04-18T20:43:53.729Z,102346.28
2023-04-18T20:46:20.930Z,102351.38
2023-04-18T20:48:47.967Z,102360.00
2023-04-18T20:51:15.910Z,102348.00
2023-04-18T20:53:43.239Z,102351.88
2023-04-18T20:56:10.452Z,102354.94
2023-04-18T20:58:37.430Z,102351.38
2023-04-18T21:01:04.855Z,102342.69
2023-04-18T21:03:31.860Z,102350.91
2023-04-18T21:05:58.991Z,102343.84
2023-04-18T21:08:26.149Z,102346.91
2023-04-18T21:10:53.322Z,102348.88
2023-04-18T21:13:21.043Z,102355.25
2023-04-18T21:15:51.221Z,102341.84
2023-04-18T21:18:21.719Z,102356.59
2023-04-18T21:20:49.414Z,102360.69
2023-04-18T21:23:16.352Z,102354.63
2023-04-18T21:25:43.622Z,102350.25
2023-04-18T21:28:11.534Z,102363.44
2023-04-18T21:30:38.656Z,102359.69
2023-04-18T21:33:05.616Z,102348.94
2023-04-18T21:35:32.631Z,102352.16
2023-04-18T21:37:59.712Z,102354.59
2023-04-18T21:40:26.876Z,102348.34
2023-04-18T21:42:54.046Z,102353.25
2023-04-18T21:45:21.204Z,102356.31
2023-04-18T21:47:48.376Z,102351.72
2023-04-18T21:50:15.540Z,102350.44
2023-04-18T21:52:42.664Z,102343.56
2023-04-18T21:55:10.004Z,102349.06
2023-04-18T21:57:38.201Z,102353.94
2023-04-18T22:00:08.444Z,102348.34
2023-04-18T22:02:37.276Z,102352.97
2023-04-18T22:05:04.814Z,102350.47
2023-04-18T22:07:32.290Z,102344.84
2023-04-18T22:09:59.884Z,102346.03
2023-04-18T22:12:27.083Z,102351.75
2023-04-18T22:14:54.473Z,102340.00
2023-04-18T22:17:22.523Z,102335.41
2023-04-18T22:19:50.424Z,102331.44
2023-04-18T22:22:17.784Z,102340.84
2023-04-18T22:24:47.409Z,102337.16
2023-04-18T22:27:14.926Z,102322.63
2023-04-18T22:29:42.018Z,102332.75
2023-04-18T22:32:09.062Z,102331.00
2023-04-18T22:34:36.103Z,102332.47
2023-04-18T22:37:03.348Z,102325.94
2023-04-18T22:39:31.138Z,102326.22
2023-04-18T22:41:58.248Z,102320.91
2023-04-18T22:44:25.294Z,102314.28
2023-04-18T22:46:54.828Z,102317.75
2023-04-18T22:49:22.343Z,102317.75
2023-04-18T22:51:49.778Z,102321.44
2023-04-18T22:54:17.077Z,102311.34
2023-04-18T22:56:44.369Z,102304.16
2023-04-18T22:59:11.650Z,102306.00
2023-04-18T23:01:38.697Z,102294.03
2023-04-18T23:04:06.387Z,102308.03
2023-04-18T23:06:33.707Z,102309.50
2023-04-18T23:09:00.896Z,102295.88
2023-04-18T23:11:28.327Z,102288.53
2023-04-18T23:13:55.678Z,102299.84
2023-04-18T23:16:23.242Z,102299.00
2023-04-18T23:18:50.322Z,102303.97
2023-04-18T23:21:17.557Z,102294.50
2023-04-18T23:23:44.775Z,102295.97
2023-04-18T23:26:14.528Z,102294.97
2023-04-18T23:28:42.361Z,102308.75
2023-04-18T23:31:09.801Z,102302.78
2023-04-18T23:33:37.272Z,102300.28
2023-04-18T23:36:04.525Z,102301.56
2023-04-18T23:38:31.944Z,102290.91
2023-04-18T23:40:59.241Z,102301.19
2023-04-18T23:43:26.329Z,102296.97
2023-04-18T23:45:53.378Z,102287.56
2023-04-18T23:48:20.668Z,102288.59
2023-04-18T23:50:50.219Z,102293.00
2023-04-18T23:53:17.453Z,102291.34
2023-04-18T23:55:44.526Z,102281.75
2023-04-18T23:58:11.693Z,102282.59
